Tiempo atmosférico en la estación meteorológica de Ceuta, Ceuta (87 m.)



Fecha
DESCASC
Temp. máxima en grados centígrados (hora)
DESCASC
Temp. mínima en grados centígrados (hora)
DESCASC
Temp. media en grados centígrados
DESCASC
Racha de viento máxima en m/sg (hora)
DESCASC
Velocidad máxima media en intervalos de 10 minutos(hora)
DESCASC
Precipitaciones diarias en mm
DESCASC
Precipitaciones de 00:00 a 06:00 en mm
DESCASC
Precipitaciones de 06:00 a 12:00 en mm
DESCASC
Precipitaciones de 12:00 a 18:00 en mm
DESCASC
Precipitaciones de 18:00 a 24:00 en mm
DESCASC
05-04-2020 17.4 (13:50) 15.1 (06:10) 16.3 8.89 (10:00) 5.56 (07:20) 0 0 0 0 0
04-04-2020 16.3 (12:20) 14.7 (02:30) 15.5 12.22 (01:50) 6.67 (03:00) 0.4 0 0 0.4 0
03-04-2020 18.3 (14:20) 13.1 (00:00) 15.7 10 (00:30) 6.39 (18:00) 0 0 0 0 0
02-04-2020 15.5 (16:30) 11.5 (00:00) 13.5 14.72 (15:30) 5.83 (13:20) 11.4 0.2 10.8 0.4 0
01-04-2020 17.9 (17:20) 12.3 (00:00) 15.1 12.5 (15:00) 4.72 (15:00) 5.2 1.2 2.4 1.6 0
31-03-2020 19.3 (17:00) 12.8 (00:00) 16 12.22 (18:10) 5 (11:10) 28.6 16 3.8 2.8 6
30-03-2020 18.8 (15:10) 12.6 (00:00) 15.7 6.11 (18:20) 3.89 (22:00) 0.8 0 0 0 0.8
29-03-2020 17.6 (13:20) 13.6 (00:00) 15.6 7.5 (00:30) 4.17 (03:20) 0 0 0 0 0
28-03-2020 18.6 (13:50) 11.4 (00:00) 15 9.44 (14:50) 6.39 (14:30) 0 0 0 0 0
27-03-2020 18.9 (13:10) 12.9 (00:00) 15.9 9.17 (15:10) 5 (14:10) 0 0 0 0 0
26-03-2020 19.2 (15:50) 10.8 (00:00) 15 11.67 (12:20) 5.56 (12:30) 0 0 0 0 0
25-03-2020 15.9 (15:30) 11.8 (00:00) 13.8 8.89 (05:30) 5 (09:10) 0.2 0.2 0 0 0
24-03-2020 14.7 (03:00) 12 (00:00) 13.3 12.78 (10:20) 6.67 (10:00) 55.2 9.8 23.4 21.4 0.6
23-03-2020 14.7 (12:30) 11.7 (00:00) 13.2 10 (13:30) 6.39 (13:30) 0.8 0.2 0.4 0.2 0
22-03-2020 14.2 (16:40) 10.6 (04:20) 12.4 6.67 (00:20) 3.61 (00:40) 20.4 11.2 8.6 0.6 0
21-03-2020 17.8 (12:40) 11.9 (00:00) 14.8 12.22 (14:50) 5 (14:30) 6.8 1.2 0 4.4 1.2
20-03-2020 15.7 (15:50) 14.2 (00:00) 14.9 11.39 (02:50) 6.67 (04:10) 15.8 0 0 0 15.8
19-03-2020 15.8 (14:30) 15 (00:00) 15.4 13.89 (12:00) 7.78 (07:10) 0 0 0 0 0
18-03-2020 16.7 (15:40) 15 (00:00) 15.9 16.39 (13:50) 9.72 (15:20) 2.6 2.4 0.2 0 0
17-03-2020 16.1 (14:30) 10.3 (00:00) 13.2 14.17 (19:10) 8.89 (19:20) 3.4 0.6 0.6 0 2.2
16-03-2020 16.4 (04:30) 10.9 (00:00) 13.6 13.89 (14:50) 5.83 (09:30) 4.8 0 0 0 4.8
15-03-2020 17.6 (16:50) 14.3 (00:00) 16 6.39 (01:20) 4.17 (01:10) 4.2 0 4.2 0 0
14-03-2020 19.1 (14:20) 14.4 (00:00) 16.8 6.11 (04:10) 3.89 (15:00) 0 0 0 0 0
13-03-2020 22.2 (12:20) 15.1 (22:20) 18.7 9.72 (09:00) 4.44 (16:10) 0.2 0 0.2 0 0
12-03-2020 24.3 (16:40) 14.9 (00:00) 19.6 5 (14:30) 3.06 (17:00) 0 0 0 0 0
11-03-2020 20.6 (17:20) 14.8 (00:00) 17.7 8.06 (03:50) 4.44 (03:50) 0 0 0 0 0
10-03-2020 20.8 (00:00) 15.3 (00:00) 18 10.56 (00:20) 5.28 (00:20) 0 0 0 0 0

Gráficas

Temp. máximas Temp. mínimas Temp. medias Precipitaciones Rachas de viento máximas Velocidades máximas media en intervalos de 10 minutos

Datos horarios

Fecha y hora oficial Temperatura (ºC) Velocidad del viento (km/h) Dirección del viento Racha (km/h) Dirección de racha Precipitación (mm) Presión (hPa) Tendencia (hPa) Humedad (%)
2020-04-08 23:00:00 15.6 15 Sudeste 28 Este 0 1011.1 0.7 89
2020-04-08 22:00:00 15.6 18 Este 28 Este 0 1010.8 0.5 88
2020-04-08 21:00:00 15.7 16 Este 26 Este 0 1010.5 0.1 87
2020-04-08 20:00:00 15.8 18 Este 28 Este 0 1010.4 -0.4 85
2020-04-08 19:00:00 16.2 15 Este 28 Este 0 1010.3 -1 82
2020-04-08 18:00:00 16.5 18 Este 33 Este 0 1010.4 -1.2 82
2020-04-08 17:00:00 17.3 20 Este 36 Este 0 1010.8 -1.3 79
2020-04-08 16:00:00 18 18 Este 32 Este 0 1011.3 -1.2 79
2020-04-08 15:00:00 18.2 22 Este 35 Este 0 1011.6 -1.1 76
2020-04-08 14:00:00 18 19 Este 35 Este 0 1012.1 -0.4 77
2020-04-08 13:00:00 17.6 19 Este 32 Este 0 1012.5 0.3 79
2020-04-08 12:00:00 16.5 19 Este 32 Este 0 1012.7 0.6 84
2020-04-08 11:00:00 16 15 Este 30 Este 0 1012.5 0.5 87
2020-04-08 10:00:00 15.5 18 Este 28 Sudeste 0 1012.2 0.4 88
2020-04-08 09:00:00 15.3 15 Este 26 Sudeste 0 1012.1 0.1 89
2020-04-08 08:00:00 15 16 Este 26 Este 0 1012 -0.4 89
2020-04-08 07:00:00 14.9 15 Este 31 Este 0 1011.8 -1.3 88
2020-04-08 06:00:00 15.1 14 Este 30 Este 0 1012 -1.6 88
2020-04-08 05:00:00 15 15 Este 29 Este 0 1012.4 -1.4 88
2020-04-08 04:00:00 15.2 16 Este 31 Este 0 1013.1 -1 89
2020-04-08 03:00:00 15.3 14 Este 27 Este 0 1013.6 -0.5 90
2020-04-08 02:00:00 15.1 13 Este 26 Este 0 1013.8 -0.2 91
2020-04-08 01:00:00 15.2 14 Este 26 Este 0 1014.1 0.7 92
2020-04-08 00:00:00 15.4 15 Este 26 Sudeste 0 1014.1 1.2 92
2020-04-07 23:00:00 15.4 15 Este 24 Este 0 1014 1 91
2020-04-07 22:00:00 15.5 11 Sudeste 21 Sudeste 0 1013.4 0.7 95
2020-04-07 21:00:00 15.6 11 Sudeste 22 Sudeste 0 1012.9 0.2 92
2020-04-07 20:00:00 15.7 12 Sudeste 26 Este 0 1013 0 90
2020-04-07 19:00:00 16.2 15 Este 26 Este 0 1012.7 -0.5 87
2020-04-07 18:00:00 16.2 15 Este 24 Este 0 1012.7 -0.9 87
2020-04-07 17:00:00 16.3 18 Este 27 Este 0 1013 -1.3 86
2020-04-07 16:00:00 18.4 16 Este 28 Este 0 1013.2 -1.3 77
2020-04-07 15:00:00 17.7 17 Este 27 Este 0 1013.6 -0.9 80
2020-04-07 14:00:00 17.3 14 Este 24 Este 0 1014.3 0.3 84
2020-04-07 13:00:00 17.1 14 Este 25 Este 0 1014.5 1 83
2020-04-07 12:00:00 15.8 13 Este 25 Este 0 1014.5 1.2 88
2020-04-07 11:00:00 15.8 14 Este 24 Este 0 1014 0.8 86
2020-04-07 10:00:00 15.5 11 Este 23 Este 0 1013.5 0.6 87
2020-04-07 09:00:00 15.1 12 Sudeste 26 Este 0 1013.3 0.4 87
2020-04-07 08:00:00 15.2 10 Sudeste 22 Este 0 1013.2 0.4 87
2020-04-07 07:00:00 15.2 10 Sudeste 19 Este 0 1012.9 -0.3 89
2020-04-07 06:00:00 15.1 10 Este 19 Este 0 1012.9 -0.2 90
2020-04-07 05:00:00 15.3 10 Este 17 Este 0 1012.8 -0.3 91
2020-04-07 04:00:00 15.2 8 Este 18 Este 0 1013.2 -0.1 90
2020-04-07 03:00:00 15.3 13 Este 18 Este 0 1013.1 -0.3 90
2020-04-07 02:00:00 15.3 9 Este 17 Este 0 1013.1 0 92
2020-04-07 01:00:00 15.4 9 Este 13 Este 0 1013.3 0.5 93
2020-04-07 00:00:00 15.4 6 Sudeste 11 Sudeste 0 1013.4 1.3 93
2020-04-06 23:00:00 15.6 9 Sur 14 Sur 0 1013.1 1.2 92
2020-04-06 22:00:00 15.7 8 Sudeste 15 Sur 0 1012.8 1 91
2020-04-06 21:00:00 15.9 10 Sur 15 Sur 0 1012.1 0.1 90
2020-04-06 20:00:00 16.1 9 Sudeste 15 Sudeste 0 1011.9 -0.5 87
2020-04-06 19:00:00 16.5 10 Sudeste 19 Sudeste 0 1011.8 -0.8 86
2020-04-06 18:00:00 16.6 11 Este 18 Este 0 1012 -0.8 85
2020-04-06 17:00:00 16.7 12 Este 18 Este 0 1012.4 -0.6 84
2020-04-06 16:00:00 17.3 11 Sudeste 21 Este 0 1012.6 -0.5 84
2020-04-06 15:00:00 17.4 9 Sudeste 19 Este 0 1012.8 -0.1 81
2020-04-06 14:00:00 16.7 12 Este 19 Sudeste 0 1013 0.3 87
2020-04-06 13:00:00 16.4 10 Sudeste 18 Sudeste 0 1013.1 1.3 88
2020-04-06 12:00:00 16 10 Sudeste 18 Este 0 1012.9 1.5 89
2020-04-06 11:00:00 15.7 10 Sudeste 17 Este 0 1012.7 2.1 90
2020-04-06 10:00:00 15.6 12 Este 18 Este 0 1011.8 1.8 91
2020-04-06 09:00:00 15.2 10 Este 18 Sudeste 0 1011.4 1.7 90
2020-04-06 08:00:00 15 8 Este 14 Este 0 1010.6 1 91
2020-04-06 07:00:00 15 8 Este 15 Este 0 1010 0.2 91
2020-04-06 06:00:00 15 9 Este 15 Este 0 1009.7 -0.5 91
2020-04-06 05:00:00 15 7 Este 14 Este 0 1009.6 -1 93
2020-04-06 04:00:00 15.1 8 Este 13 Este 0 1009.8 -0.7 94
2020-04-06 03:00:00 15.2 6 Sudeste 13 Este 0 1010.2 -0.1 95
2020-04-06 02:00:00 15.4 8 Sudeste 12 Sudeste 0 1010.6 0.5 94
2020-04-06 01:00:00 15.5 9 Sudeste 16 Sudeste 0 1010.5 1.1 94
2020-04-06 00:00:00 15.5 8 Sudeste 19 Sudeste 0 1010.3 1.3 93
2020-04-05 23:00:00 15.5 12 Sudeste 21 Sudeste 0 1010.1 1.4 92
2020-04-05 22:00:00 15.6 10 Sudeste 20 Este 0 1009.4 0.9 92
2020-04-05 21:00:00 15.6 10 Este 19 Sudeste 0 1009 0.7 91
2020-04-05 20:00:00 15.8 13 Sudeste 20 Sudeste 0 1008.7 0.2 90
2020-04-05 19:00:00 15.9 12 Este 21 Este 0 1008.5 0 90
2020-04-05 18:00:00 16.2 14 Este 22 Este 0 1008.3 -0.4 89
2020-04-05 17:00:00 16.2 14 Este 24 Este 0 1008.5 -0.5 88
2020-04-05 16:00:00 16.6 15 Este 25 Este 0 1008.5 -0.9 87
2020-04-05 15:00:00 16.9 19 Este 29 Este 0 1008.7 -0.7 85
2020-04-05 14:00:00 17.4 18 Este 27 Sudeste 0 1009 -0.1 84
2020-04-05 13:00:00 16.7 15 Este 27 Sudeste 0 1009.4 1 86
2020-04-05 12:00:00 16.6 17 Este 26 Este 0 1009.4 1.4 85
2020-04-05 11:00:00 16 15 Este 25 Este 0 1009.1 1.7 87
2020-04-05 10:00:00 15.4 15 Este 32 Este 0 1008.4 1.5 88
2020-04-05 09:00:00 15.2 14 Este 30 Este 0 1008 1.3 89
2020-04-05 08:00:00 15.1 11 Este 32 Este 0 1007.4 0.8 89
2020-04-05 07:00:00 15.1 18 Este 28 Este 0 1006.9 0.2 88
2020-04-05 06:00:00 15.2 14 Este 28 Este 0 1006.7 -0.4 89
2020-04-05 05:00:00 15.2 13 Este 21 Este 0 1006.6 -0.8 89
2020-04-05 04:00:00 15.2 15 Este 27 Este 0 1006.7 -0.7 90
2020-04-05 03:00:00 15.3 12 Este 22 Este 0 1007.1 -0.3 91
2020-04-05 02:00:00 15.3 11 Este 20 Sudeste 0 1007.4 0.2 92
2020-04-05 01:00:00 15.3 14 Este 23 Sudeste 0 1007.4 0.6 91
2020-04-05 00:00:00 15.4 14 Este 23 Sudeste 0 1007.4 1.4 92
2020-04-04 23:00:00 15.3 13 Sudeste 26 Sudeste 0 1007.2 1.8 91
2020-04-04 22:00:00 15.3 13 Este 28 Este 0 1006.8 1.6 91
2020-04-04 21:00:00 15.3 17 Este 33 Este 0 1006 0.8 88
2020-04-04 20:00:00 15.5 18 Este 28 Sudeste 0 1005.4 0.2 87
2020-04-04 19:00:00 15.9 18 Sudeste 33 Sudeste 0 1005.2 0 84
2020-04-04 18:00:00 16.1 18 Este 32 Este 0 1005.2 0.3 83
2020-04-04 17:00:00 16 20 Este 39 Este 0 1005.2 -0.1 83
2020-04-04 16:00:00 15.8 23 Este 37 Este 0 1005.2 -0.7 85
2020-04-04 15:00:00 15.6 24 Este 39 Sudeste 0 1004.9 -0.8 86
2020-04-04 14:00:00 15.2 24 Este 35 Este 0.4 1005.3 0.3 88
2020-04-04 13:00:00 15.4 17 Este 35 Este 0 1005.9 1.6 87
2020-04-04 12:00:00 16.1 19 Este 33 Este 0 1005.7 2 82
2020-04-04 11:00:00 15.5 19 Este 33 Este 0 1005 1.7 84
2020-04-04 10:00:00 15.1 23 Este 39 Este 0 1004.3 1.1 83
2020-04-04 09:00:00 15 18 Este 35 Este 0 1003.7 0.4 85
2020-04-04 08:00:00 14.8 20 Este 35 Este 0 1003.3 -0.3 85
2020-04-04 07:00:00 14.7 17 Este 31 Este 0 1003.2 -0.7 83
2020-04-04 06:00:00 14.8 19 Este 34 Este 0 1003.3 -1 85
2020-04-04 05:00:00 14.9 18 Este 34 Este 0 1003.6 -1.2 85
2020-04-04 04:00:00 14.7 19 Este 39 Este 0 1003.9 -1.1 84
2020-04-04 03:00:00 14.7 24 Este 39 Sudeste 0 1004.3 -0.9 80
2020-04-04 02:00:00 14.9 23 Sudeste 44 Este 0 1004.8 -0.6 84
2020-04-04 01:00:00 14.9 19 Sudeste 35 Este 0 1005 0.1 84
2020-04-04 00:00:00 14.9 19 Sudeste 32 Sudeste 0 1005.2 0.6 80
2020-04-03 23:00:00 15.2 19 Este 33 Sudeste 0 1005.4 0.9 77
2020-04-03 22:00:00 15.3 16 Sudeste 32 Sudeste 0 1004.9 0.7 81
2020-04-03 21:00:00 15.5 17 Sudeste 32 Este 0 1004.6 0.4 81
2020-04-03 20:00:00 15.7 18 Sudeste 33 Este 0 1004.5 0 78
2020-04-03 19:00:00 16.5 22 Este 36 Este 0 1004.2 -0.8 74
2020-04-03 18:00:00 16.9 23 Este 30 Este 0 1004.2 -1.4 73
2020-04-03 17:00:00 17.3 20 Este 29 Este 0 1004.5 -1.4 73
2020-04-03 16:00:00 17.9 15 Este 23 Este 0 1005 -1.2 67
2020-04-03 15:00:00 18 13 Sudeste 19 Sudeste 0 1005.6 -0.7 63
2020-04-03 14:00:00 17.9 7 Nordeste 14 Nordeste 0 1005.9 0 65
2020-04-03 13:00:00 17.7 8 Nordeste 14 Sudoeste 0 1006.2 0.4 59
2020-04-03 12:00:00 17.9 7 Nordeste 14 Nordeste 0 1006.3 1.1 55
2020-04-03 11:00:00 17.5 7 Sudeste 14 Sudeste 0 1005.9 1.1 60
2020-04-03 10:00:00 16.6 7 Sur 12 Sur 0 1005.8 1.8 62
2020-04-03 09:00:00 15.2 4 Sur 9 Sudoeste 0 1005.2 1.3 63
2020-04-03 08:00:00 13.6 5 Sudoeste 16 Oeste 0 1004.8 0.6 70
2020-04-03 07:00:00 14.3 9 Oeste 30 Noroeste 0 1004 -0.6 65
2020-04-03 06:00:00 14.2 11 Noroeste 31 Noroeste 0 1003.9 -1.2 65
2020-04-03 05:00:00 14.2 10 Noroeste 29 Noroeste 0 1004.2 -1.3 66
2020-04-03 04:00:00 14.3 11 Noroeste 32 Noroeste 0 1004.6 -1.2 65
2020-04-03 03:00:00 13.9 14 Noroeste 33 Oeste 0 1005.1 -0.7 66
2020-04-03 02:00:00 13.5 13 Oeste 35 Oeste 0 1005.5 -0.1 68
2020-04-03 01:00:00 13.3 14 Oeste 36 Oeste 0 1005.8 0.8 65
2020-04-03 00:00:00 13.1 11 Oeste 36 Oeste 0 1005.8 1.3 63
2020-04-02 23:00:00 12.7 12 Oeste 27 Sudoeste 0 1005.6 1.3 73
2020-04-02 22:00:00 12.9 14 Oeste 32 Oeste 0 1005 1.2 73
2020-04-02 21:00:00 13.1 13 Oeste 39 Oeste 0 1004.5 1.2 70
2020-04-02 20:00:00 13.3 17 Oeste 45 Oeste 0 1004.3 1.3 68
2020-04-02 19:00:00 14.7 13 Oeste 41 Oeste 0 1003.8 1.3 64
2020-04-02 18:00:00 14.9 17 Oeste 47 Oeste 0 1003.3 1 63
2020-04-02 17:00:00 15 11 Oeste 38 Noroeste 0 1003 1.1 66
2020-04-02 16:00:00 15 15 Oeste 53 Oeste 0 1002.5 0.8 65
2020-04-02 15:00:00 15.1 18 Oeste 46 Oeste 0.2 1002.3 0.6 62
2020-04-02 14:00:00 15.2 13 Oeste 46 Noroeste 0 1001.9 0.7 61
2020-04-02 13:00:00 14.7 16 Noroeste 40 Noroeste 0.2 1001.7 1 73
2020-04-02 12:00:00 12.2 18 Noroeste 42 Noroeste 3.4 1001.7 1 90
2020-04-02 11:00:00 13.2 12 Oeste 33 Oeste 2.2 1001.2 0.5 80
2020-04-02 10:00:00 14.2 8 Sudoeste 24 Oeste 0 1000.7 0.7 70
2020-04-02 09:00:00 12 10 Oeste 28 Oeste 0.4 1000.7 0.6 84
2020-04-02 08:00:00 11.8 12 Oeste 31 Sudoeste 4 1000.7 -0.2 87
2020-04-02 07:00:00 12.5 12 Sudoeste 25 Sudoeste 0.8 1000 -1.5 81
2020-04-02 06:00:00 12.8 8 Sur 15 Sur 0.2 1000.1 -2.2 83
2020-04-02 05:00:00 12.4 5 Sur 16 Sur 0 1000.9 -2.1 83
2020-04-02 04:00:00 12.6 2 Sudoeste 32 Sur 0 1001.5 -2.2 82
2020-04-02 03:00:00 13.3 6 Sudoeste 14 Sur 0 1002.3 -1.9 76
2020-04-02 02:00:00 13.5 8 Sudoeste 20 Sudoeste 0 1003 -1.1 74
2020-04-02 01:00:00 13.5 11 Sudoeste 28 Sudoeste 0 1003.7 -0.4 70
2020-04-02 00:00:00 13.2 5 Sur 13 Sudoeste 0 1004.2 1 79
2020-04-01 23:00:00 13.9 6 Sur 18 Sudoeste 0 1004.1 1.1 74
2020-04-01 22:00:00 14.3 8 Sudoeste 29 Oeste 0 1004.1 1.3 67
2020-04-01 21:00:00 14.8 11 Sudoeste 28 Sudoeste 0 1003.2 0.5 67
2020-04-01 20:00:00 15.5 9 Sudoeste 26 Oeste 0 1003 0.4 62
2020-04-01 19:00:00 16.6 13 Oeste 40 Oeste 0 1002.8 -0.2 56
2020-04-01 18:00:00 17.5 11 Oeste 30 Oeste 0 1002.7 -0.8 57
2020-04-01 17:00:00 17.7 10 Oeste 32 Sudoeste 0 1002.6 -0.8 54
2020-04-01 16:00:00 15.7 10 Oeste 30 Oeste 0.2 1003 -0.9 64
2020-04-01 15:00:00 15.3 17 Noroeste 45 Oeste 1.2 1003.5 -0.5 78
2020-04-01 14:00:00 16.2 7 Oeste 17 Oeste 0 1003.4 -0.3 80
2020-04-01 13:00:00 15 4 Noroeste 14 Oeste 0.2 1003.9 0.8 83
2020-04-01 12:00:00 14.7 4 Sur 14 Sudoeste 0.2 1004 2 86
2020-04-01 11:00:00 13.6 5 Oeste 14 Sudoeste 2 1003.7 2 90
2020-04-01 10:00:00 14.2 7 Sudoeste 17 Sur 0.2 1003.1 2.1 83
2020-04-01 09:00:00 13.8 4 Sudoeste 9 Oeste 0 1002 1.3 84
2020-04-01 08:00:00 12.4 0 Calma 8 Sudoeste 0 1001.7 0.9 92
2020-04-01 07:00:00 12.9 5 Sudoeste 10 Sudoeste 0 1001 0 90
2020-04-01 06:00:00 12.7 6 Sudoeste 8 Sudoeste 0.2 1000.7 -0.5 93
2020-04-01 05:00:00 13.2 4 Sudoeste 12 Sudoeste 0.2 1000.8 -0.4 93
2020-04-01 04:00:00 13.3 5 Sudoeste 12 Oeste 0 1001 -0.1 89
2020-04-01 03:00:00 13.8 5 Sur 17 Sudoeste 0.4 1001.2 -0.1 91
2020-04-01 02:00:00 13.7 6 Sur 11 Sudoeste 0.4 1001.2 0.3 93
2020-04-01 01:00:00 13.6 5 Sudoeste 14 Sudeste 0 1001.1 0.6 92
2020-04-01 00:00:00 14.2 5 Sudoeste 20 Oeste 1.8 1001.3 2.2 91
2020-03-31 23:00:00 14.1 7 Sudoeste 26 Oeste 4.2 1000.9 2.7 89
2020-03-31 22:00:00 15.8 10 Oeste 25 Oeste 0 1000.5 3.1 75
2020-03-31 21:00:00 16.3 7 Sudoeste 34 Sudoeste 0 999.1 2 75
2020-03-31 20:00:00 16.9 10 Sudoeste 33 Oeste 0 998.2 1.8 72
2020-03-31 19:00:00 18 14 Sudoeste 44 Sudoeste 0 997.4 0.6 65
2020-03-31 18:00:00 19 12 Sudoeste 38 Oeste 0 997.1 0.1 64
2020-03-31 17:00:00 19.3 12 Sudoeste 35 Sur 0 996.4 -0.3 66
2020-03-31 16:00:00 17.8 11 Sur 24 Sudoeste 0.4 996.8 0.1 79
2020-03-31 15:00:00 16 8 Sudoeste 26 Sudoeste 1.8 997 0.6 86
2020-03-31 14:00:00 18.3 11 Sur 33 Sudoeste 0.6 996.7 0.4 74
2020-03-31 13:00:00 17.8 10 Sudoeste 29 Sudoeste 0 996.7 0.5 71
2020-03-31 12:00:00 17 10 Sur 27 Sudeste 0 996.4 1 76
2020-03-31 11:00:00 15.4 14 Sur 27 Sur 0.4 996.3 1.4 89
2020-03-31 10:00:00 14.6 14 Sur 22 Sur 0.2 996.2 1.5 91
2020-03-31 09:00:00 14 8 Sur 21 Sur 0 995.4 1 95
2020-03-31 08:00:00 13.8 10 Sur 18 Sur 0.2 994.9 0.1 98
2020-03-31 07:00:00 13.4 3 Sudoeste 13 Sur 3 994.7 -0.8 98
2020-03-31 06:00:00 13.1 4 Sudoeste 12 Sudoeste 0 994.4 -1.9 98
2020-03-31 05:00:00 13.1 7 Sur 10 Sur 0 994.8 -1.7 97
2020-03-31 04:00:00 12.8 4 Sur 10 Sudoeste 3.2 995.5 -1.6 96
2020-03-31 03:00:00 13.1 9 Sur 21 Sudeste 5.2 996.3 -1.3 94
2020-03-31 02:00:00 13.4 11 Sur 21 Sur 5.8 996.5 -0.8 92
2020-03-31 01:00:00 14.4 9 Sur 17 Sur 1.8 997.1 -0.6 94
2020-03-31 00:00:00 14.8 10 Sur 18 Sur 0.8 997.6 -0.1 92
2020-03-30 23:00:00 14.8 10 Sur 20 Sur 0 997.3 -0.6 90
2020-03-30 22:00:00 15 14 Sur 21 Sur 0 997.7 -0.9 88
2020-03-30 21:00:00 15.3 9 Sur 21 Sur 0 997.7 -1.3 81
2020-03-30 20:00:00 15.7 12 Sur 20 Sur 0 997.9 -1.6 77
2020-03-30 19:00:00 16.5 9 Sur 22 Noroeste 0 998.6 -1.5 74
2020-03-30 18:00:00 16.9 9 Noroeste 20 Noroeste 0 999 -1.6 70
2020-03-30 17:00:00 18.3 9 Sur 19 Sur 0 999.5 -1.8 62
2020-03-30 16:00:00 18.2 10 Sudeste 18 Sudeste 0 1000.1 -1.8 60
2020-03-30 15:00:00 18.7 8 Sudeste 13 Sudeste 0 1000.6 -2.1 66
2020-03-30 14:00:00 16.9 9 Sudeste 17 Sur 0 1001.3 -1.5 72
2020-03-30 13:00:00 17.5 12 Sur 17 Sur 0 1001.9 -1 70
2020-03-30 12:00:00 16.9 7 Este 13 Nordeste 0 1002.7 -0.3 67
2020-03-30 11:00:00 16 3 Sur 9 Sur 0 1002.8 -0.1 67
2020-03-30 10:00:00 14.2 4 Sur 12 Sur 0 1002.9 -0.1 81
2020-03-30 09:00:00 13.3 3 Sudoeste 16 Sur 0 1003 -0.3 82
2020-03-30 08:00:00 13 4 Sudoeste 19 Noroeste 0 1002.9 -1 84
2020-03-30 07:00:00 12.7 4 Oeste 10 Sudoeste 0 1003 -1.3 85
2020-03-30 06:00:00 13.2 5 Noroeste 16 Oeste 0 1003.3 -1.6 83
2020-03-30 05:00:00 12.6 4 Oeste 9 Sudoeste 0 1003.9 -1.8 90
2020-03-30 04:00:00 13.1 6 Oeste 9 Sudoeste 0 1004.3 -1.9 92
2020-03-30 03:00:00 13.7 0 Calma 4 Sudoeste 0 1004.9 -1.6 90
2020-03-30 02:00:00 13.7 2 Oeste 5 Oeste 0 1005.7 -0.9 88
2020-03-30 01:00:00 14.2 3 Sudoeste 6 Oeste 0 1006.2 -0.3 88
2020-03-30 00:00:00 14.1 3 Sudoeste 6 Sur 0 1006.5 0.2 88
2020-03-29 23:00:00 14.2 5 Sudoeste 7 Oeste 0 1006.6 0.1 87
2020-03-29 22:00:00 15 3 Sudoeste 14 Sur 0 1006.5 0 84
2020-03-29 21:00:00 15.2 8 Sur 18 Sur 0 1006.3 -0.4 81
2020-03-29 20:00:00 15.4 10 Sur 18 Sur 0 1006.5 -0.6 80
2020-03-29 19:00:00 15.7 10 Sur 17 Sur 0 1006.5 -1 78
2020-03-29 18:00:00 16.1 11 Sur 17 Sur 0 1006.7 -1.4 76
2020-03-29 17:00:00 16.8 10 Sudeste 18 Sudeste 0 1007.1 -1.5 72
2020-03-29 16:00:00 16.7 10 Sur 18 Sudeste 0 1007.5 -1.4 71
2020-03-29 15:00:00 17.2 9 Sudeste 18 Sur 0 1008.1 -1.1 73
2020-03-29 14:00:00 17.2 11 Este 21 Este 0 1008.6 -0.5 69
2020-03-29 13:00:00 17.3 13 Sudeste 20 Sudeste 0 1008.9 0.2 71
2020-03-29 12:00:00 15.9 10 Este 17 Este 0 1009.2 0.7 76
2020-03-29 11:00:00 15.5 13 Este 17 Nordeste 0 1009.1 1 75
2020-03-29 10:00:00 15.2 10 Este 18 Sudeste 0 1008.7 0.9 77
2020-03-29 09:00:00 14.2 10 Este 17 Este 0 1008.5 0.5 80
2020-03-29 08:00:00 13.8 10 Este 17 Sudeste 0 1008.1 -0.2 82
2020-03-29 07:00:00 13.7 8 Este 18 Este 0 1007.8 -0.9 83
2020-03-29 06:00:00 13.7 10 Este 19 Este 0 1008 -1 82
2020-03-29 05:00:00 13.8 9 Este 23 Este 0 1008.3 -1 82
2020-03-29 03:00:00 14 13 Este 25 Este 0 1009 -0.3 84
2020-03-29 01:00:00 14.2 13 Este 27 Este 0 1009.3 0.4 81
2020-03-29 00:00:00 14.5 14 Este 26 Este 0 1009.4 1.2 82
2020-03-28 23:00:00 14.5 12 Sudeste 25 Sudeste 0 1009.3 1.8 81
2020-03-28 22:00:00 14.5 14 Este 24 Este 0 1008.9 1.8 82
2020-03-28 21:00:00 14.4 12 Sudeste 22 Este 0 1008.2 1.6 82
2020-03-28 20:00:00 14.2 8 Sudeste 18 Este 0 1007.5 1.2 85
2020-03-28 19:00:00 14.4 11 Este 25 Este 0 1007.1 1 84
2020-03-28 18:00:00 14.7 13 Este 27 Este 0 1006.6 0.5 84
2020-03-28 17:00:00 14.8 15 Este 25 Este 0 1006.3 0.3 84
2020-03-28 16:00:00 14.7 17 Este 34 Este 0 1006.1 0 87
2020-03-28 15:00:00 15.4 21 Este 34 Este 0 1006.1 0 84
2020-03-28 14:00:00 17.4 13 Este 22 Este 0 1006 0 70
2020-03-28 13:00:00 17.4 10 Este 19 Nordeste 0 1006.1 0.5 65
2020-03-28 12:00:00 15.3 11 Nordeste 17 Norte 0 1006.1 1.2 81
2020-03-28 11:00:00 15.4 8 Nordeste 15 Norte 0 1006 1.8 80
2020-03-28 10:00:00 14.6 6 Nordeste 15 Noroeste 0 1005.6 2.1 83
2020-03-28 09:00:00 12.5 9 Norte 16 Norte 0 1004.9 1.9 94
2020-03-28 08:00:00 12.5 5 Noroeste 9 Noroeste 0 1004.2 1.5 95
2020-03-28 07:00:00 11.5 5 Oeste 7 Oeste 0 1003.5 1 95
2020-03-28 06:00:00 11.6 4 Noroeste 6 Noroeste 0 1003 0.1 94
2020-03-28 05:00:00 11.7 4 Oeste 8 Sudoeste 0 1002.7 -0.3 87
2020-03-28 04:00:00 11.9 3 Oeste 9 Oeste 0 1002.5 -0.5 88
2020-03-28 03:00:00 12.1 5 Sudoeste 9 Oeste 0 1002.9 0 87
2020-03-28 02:00:00 12.2 5 Oeste 11 Oeste 0 1003 0.2 88
2020-03-28 01:00:00 12.4 4 Oeste 6 Oeste 0 1003 0.7 87
2020-03-28 00:00:00 12.9 4 Noroeste 8 Oeste 0 1002.9 1.5 85
2020-03-27 23:00:00 13.7 5 Sudoeste 10 Sudoeste 0 1002.8 2.3 82
2020-03-27 22:00:00 14.5 5 Sur 13 Sur 0 1002.3 2.1 76
2020-03-27 21:00:00 14.4 3 Norte 18 Sudoeste 0 1001.4 1.5 72
2020-03-27 20:00:00 14.7 8 Noroeste 26 Noroeste 0 1000.5 1.1 71
2020-03-27 19:00:00 15.5 11 Noroeste 25 Noroeste 0 1000.2 0.6 70
2020-03-27 18:00:00 17.5 9 Oeste 26 Oeste 0 999.9 0.1 64
2020-03-27 17:00:00 18.1 10 Noroeste 31 Oeste 0 999.4 -0.9 65
2020-03-27 16:00:00 18.3 9 Noroeste 33 Noroeste 0 999.6 -0.9 64
2020-03-27 15:00:00 17.6 18 Noroeste 31 Noroeste 0 999.8 -0.9 70
2020-03-27 14:00:00 18.5 14 Noroeste 31 Noroeste 0 1000.3 -0.4 67
2020-03-27 13:00:00 18.7 11 Oeste 23 Sudoeste 0 1000.5 -0.1 64
2020-03-27 12:00:00 17.4 10 Noroeste 24 Noroeste 0 1000.7 0.6 69
2020-03-27 11:00:00 16.9 6 Sudoeste 18 Noroeste 0 1000.7 1.1 69
2020-03-27 10:00:00 15.6 9 Noroeste 20 Sudoeste 0 1000.6 1.5 79
2020-03-27 09:00:00 15.9 6 Oeste 15 Oeste 0 1000.1 1.1 76
2020-03-27 08:00:00 14.5 4 Sudoeste 17 Sudoeste 0 999.6 0.6 83
2020-03-27 07:00:00 13.4 5 Sudoeste 13 Sur 0 999.1 -0.1 88
2020-03-27 06:00:00 13.5 5 Sudoeste 12 Sur 0 999 -0.6 87
2020-03-27 05:00:00 13.8 4 Sudoeste 14 Sudoeste 0 999 -1.2 86
2020-03-27 04:00:00 14.2 5 Sudoeste 11 Sudoeste 0 999.2 -1.3 85
2020-03-27 03:00:00 14.5 5 Sudoeste 13 Oeste 0 999.6 -1.3 82
2020-03-27 02:00:00 14.8 5 Sudoeste 19 Oeste 0 1000.2 -0.9 81
2020-03-27 01:00:00 15 8 Sudoeste 26 Noroeste 0 1000.5 -0.7 79
2020-03-27 00:00:00 14.8 6 Oeste 22 Sudoeste 0 1000.9 -0.1 77
2020-03-26 23:00:00 14.9 6 Oeste 22 Oeste 0 1001.1 0.5 76
2020-03-26 22:00:00 15.1 10 Oeste 22 Oeste 0 1001.2 0.6 75
2020-03-26 21:00:00 15.3 9 Oeste 23 Oeste 0 1001 0.6 74
2020-03-26 20:00:00 15.6 10 Oeste 26 Oeste 0 1000.6 0.1 78
2020-03-26 19:00:00 16 12 Oeste 39 Sudoeste 0 1000.6 -0.2 79
2020-03-26 18:00:00 17.1 16 Oeste 38 Oeste 0 1000.4 -0.8 73
2020-03-26 17:00:00 18 14 Sudoeste 34 Sudoeste 0 1000.5 -1.2 72
2020-03-26 16:00:00 19.1 15 Oeste 41 Oeste 0 1000.8 -1.3 65
2020-03-26 15:00:00 18.9 15 Oeste 39 Oeste 0 1001.2 -1.3 66
2020-03-26 14:00:00 18.5 14 Oeste 39 Sudoeste 0 1001.7 -1.1 68
2020-03-26 13:00:00 18.1 16 Oeste 42 Oeste 0 1002.1 -0.4 69
2020-03-26 12:00:00 18 13 Oeste 36 Oeste 0 1002.5 -0.1 69
2020-03-26 11:00:00 17.9 5 Noroeste 21 Este 0 1002.8 0.1 69
2020-03-26 10:00:00 17.1 7 Sudoeste 15 Sudoeste 0 1002.5 -0.2 70
2020-03-26 09:00:00 14.9 5 Sudeste 9 Sudeste 0 1002.6 -0.4 79
2020-03-26 08:00:00 12.3 4 Oeste 9 Oeste 0 1002.7 -0.5 87
2020-03-26 07:00:00 11.2 5 Norte 8 Norte 0 1002.7 -1 90
2020-03-26 06:00:00 11.3 6 Sudoeste 9 Sudoeste 0 1003 -1.7 87
2020-03-26 05:00:00 11.2 5 Oeste 9 Oeste 0 1003.2 -1.9 85
2020-03-26 04:00:00 10.9 3 Oeste 7 Oeste 0 1003.7 -1.6 90
2020-03-26 03:00:00 11.4 4 Noroeste 11 Noroeste 0 1004.7 -1.1 92
2020-03-26 02:00:00 11.6 6 Oeste 9 Oeste 0 1005.1 -1.1 83
2020-03-26 01:00:00 11.9 5 Sudoeste 8 Oeste 0 1005.3 -1.1 82
2020-03-26 00:00:00 11.8 4 Sudoeste 8 Oeste 0 1005.8 -0.2 83
2020-03-25 23:00:00 12.1 5 Sudoeste 9 Este 0 1006.2 0.4 82
2020-03-25 22:00:00 12.7 3 Este 10 Sur 0 1006.4 0.5 78
2020-03-25 21:00:00 13.6 8 Sur 18 Sur 0 1006 0.2 72
2020-03-25 20:00:00 14 11 Sur 19 Sudeste 0 1005.8 -0.3 71
2020-03-25 19:00:00 14.3 12 Sudeste 22 Sudeste 0 1005.9 -0.5 71
2020-03-25 18:00:00 15 14 Sudeste 24 Sudeste 0 1005.8 -0.7 73
2020-03-25 17:00:00 14.9 14 Este 23 Este 0 1006.1 -0.7 77
2020-03-25 16:00:00 15.3 13 Este 21 Este 0 1006.4 -0.6 77
2020-03-25 15:00:00 15.6 13 Este 24 Este 0 1006.5 -0.7 72
2020-03-25 14:00:00 15.7 13 Este 19 Este 0 1006.8 -0.3 70
2020-03-25 13:00:00 14.8 10 Sudeste 24 Sur 0 1007 0.4 75
2020-03-25 12:00:00 14.3 12 Sudeste 24 Sudeste 0 1007.2 1.3 70
2020-03-25 11:00:00 13.9 13 Este 31 Este 0 1007.1 1.7 80
2020-03-25 10:00:00 13.9 16 Este 31 Este 0 1006.6 1.8 84
2020-03-25 09:00:00 14.1 17 Este 31 Sudeste 0 1005.9 1.5 80
2020-03-25 08:00:00 14.2 13 Sudeste 24 Sudeste 0 1005.4 1.3 84
2020-03-25 07:00:00 13.9 14 Sudeste 26 Sudeste 0 1004.8 0.9 86
2020-03-25 06:00:00 13.9 13 Sudeste 32 Sudeste 0 1004.4 0.2 88
2020-03-25 05:00:00 14.3 14 Sudeste 26 Sudeste 0 1004.1 -0.3 86
2020-03-25 04:00:00 14.3 13 Sudeste 25 Sudeste 0 1003.9 -0.5 89
2020-03-25 03:00:00 14.1 12 Sur 23 Sudeste 0 1004.2 0.2 89
2020-03-25 02:00:00 14.5 15 Sudeste 25 Sudeste 0.2 1004.4 0.5 87
2020-03-25 01:00:00 14.5 15 Sur 27 Sudeste 0 1004.4 1.3 85
2020-03-25 00:00:00 14.2 12 Sudeste 27 Este 0.4 1004 2.1 89
2020-03-24 23:00:00 14.1 15 Sudeste 37 Sudeste 0 1003.9 2.9 88
2020-03-24 22:00:00 13.3 11 Sudeste 27 Sudeste 0 1003.1 2.9 95
2020-03-24 21:00:00 12.6 5 Sudoeste 12 Sudoeste 0 1001.9 2.3 95
2020-03-24 20:00:00 12.6 5 Sur 9 Sur 0 1001 1.9 94
2020-03-24 19:00:00 12.8 5 Sudoeste 11 Sur 0.2 1000.2 1.4 94
2020-03-24 18:00:00 12.7 5 Sudoeste 15 Noroeste 0 999.6 0.2 94
2020-03-24 17:00:00 12.8 5 Sudeste 15 Sudoeste 0.6 999.1 -0.4 89
2020-03-24 16:00:00 12.2 7 Sudoeste 14 Sudoeste 1.6 998.8 -0.5 94
2020-03-24 15:00:00 12.3 4 Nordeste 19 Nordeste 6.6 999.4 0.5 97
2020-03-24 14:00:00 12.2 6 Sudoeste 14 Sudoeste 8.8 999.5 1.9 96
2020-03-24 13:00:00 12.9 4 Sudoeste 7 Sudoeste 3.8 999.3 2.2 98
2020-03-24 12:00:00 12.6 5 Oeste 30 Noroeste 6.4 998.9 1.8 97
2020-03-24 11:00:00 12.3 20 Noroeste 46 Noroeste 1.6 997.6 0.1 97
2020-03-24 10:00:00 12.2 24 Noroeste 38 Noroeste 1.4 997.1 -0.1 93
2020-03-24 09:00:00 12.5 17 Noroeste 44 Noroeste 2.6 997.1 -0.1 96
2020-03-24 08:00:00 12.2 3 Noroeste 12 Noroeste 5.4 997.5 0.2 96
2020-03-24 07:00:00 12.4 4 Noroeste 10 Sudoeste 6 997.2 -0.4 96
2020-03-24 06:00:00 12.7 6 Sudoeste 10 Sudoeste 2.8 997.2 -0.1 95
2020-03-24 05:00:00 13.1 5 Sudoeste 8 Sudoeste 3 997.3 -1 94
2020-03-24 04:00:00 13.7 3 Nordeste 20 Nordeste 1 997.6 -1.4 90
2020-03-24 03:00:00 14.5 13 Este 33 Este 1.2 997.3 -2.4 89
2020-03-24 02:00:00 14.4 14 Este 32 Nordeste 1.8 998.3 -1.6 90
2020-03-24 01:00:00 13.5 5 Nordeste 12 Nordeste 0 999 -1 89
2020-03-24 00:00:00 13.3 3 Este 12 Sudeste 0 999.7 -0.3 86
2020-03-23 23:00:00 13.4 9 Este 17 Nordeste 0 999.9 -0.1 84
2020-03-23 22:00:00 13.3 10 Nordeste 25 Nordeste 0 1000 0.2 85
2020-03-23 21:00:00 13.2 17 Nordeste 32 Nordeste 0 1000 0.4 86
2020-03-23 20:00:00 13.2 18 Nordeste 36 Nordeste 0 1000 0.3 88
2020-03-23 19:00:00 13.2 21 Nordeste 35 Nordeste 0 999.8 -0.1 88
2020-03-23 18:00:00 13.4 19 Nordeste 34 Nordeste 0 999.6 -0.6 86
2020-03-23 17:00:00 13.7 21 Nordeste 34 Nordeste 0 999.7 -1.1 79
2020-03-23 16:00:00 13.4 19 Nordeste 32 Nordeste 0.2 999.9 -1.6 85
2020-03-23 15:00:00 13.6 15 Nordeste 33 Nordeste 0 1000.2 -1.7 92
2020-03-23 14:00:00 13.7 18 Nordeste 36 Nordeste 0 1000.8 -1 88
2020-03-23 13:00:00 14.4 21 Nordeste 32 Nordeste 0 1001.5 -0.4 88
2020-03-23 12:00:00 13.6 15 Este 32 Este 0.2 1001.9 0.3 88
2020-03-23 11:00:00 13.8 17 Nordeste 29 Nordeste 0 1001.8 0.4 88
2020-03-23 10:00:00 14.5 17 Nordeste 24 Nordeste 0 1001.9 0.7 87
2020-03-23 09:00:00 13.8 15 Nordeste 25 Nordeste 0 1001.6 0.7 89
2020-03-23 08:00:00 12.8 8 Este 13 Este 0 1001.4 0.5 94
2020-03-23 07:00:00 12.1 4 Norte 9 Noroeste 0.2 1001.2 0.2 97
2020-03-23 06:00:00 12.4 7 Noroeste 17 Norte 0.2 1000.9 -0.6 96
2020-03-23 05:00:00 12.4 9 Noroeste 17 Norte 0 1000.9 -0.9 97
2020-03-23 04:00:00 12.2 11 Noroeste 22 Noroeste 0 1001 -1.2 97
2020-03-23 03:00:00 12.2 10 Noroeste 16 Noroeste 0 1001.5 -1 97
2020-03-23 02:00:00 11.8 5 Noroeste 12 Noroeste 0 1001.8 -0.8 92
2020-03-23 01:00:00 12.5 7 Noroeste 13 Norte 0 1002.2 0 91
2020-03-23 00:00:00 12.7 5 Noroeste 11 Norte 0 1002.5 0.5 93
2020-03-22 23:00:00 12.1 6 Noroeste 13 Norte 0 1002.6 0.9 91
2020-03-22 22:00:00 12.4 5 Noroeste 8 Oeste 0 1002.2 1 93
2020-03-22 21:00:00 12.7 5 Oeste 7 Oeste 0 1002 1.3 93
2020-03-22 20:00:00 13 5 Sudoeste 8 Oeste 0 1001.7 1.3 92
2020-03-22 19:00:00 14 3 Sur 10 Sur 0 1001.2 0.9 86
2020-03-22 18:00:00 14 8 Sur 13 Sur 0 1000.7 0 87
2020-03-22 17:00:00 13.9 8 Sur 14 Sur 0 1000.4 -0.7 88
2020-03-22 16:00:00 13.8 6 Sudeste 13 Sur 0 1000.3 -1.1 87
2020-03-22 15:00:00 13.2 7 Sur 13 Sur 0 1000.7 -0.8 92
2020-03-22 14:00:00 13.1 7 Sudeste 12 Sur 0 1001.1 -0.5 92
2020-03-22 13:00:00 12.8 3 Sur 9 Sur 0.6 1001.4 0.1 96
2020-03-22 12:00:00 12.4 6 Sudeste 9 Sudeste 0.4 1001.5 0.8 96
2020-03-22 11:00:00 12 5 Sudeste 8 Sudeste 0.4 1001.6 1.3 95
2020-03-22 10:00:00 11.6 3 Este 5 Este 0.2 1001.3 1.4 96
2020-03-22 09:00:00 11.4 2 Norte 7 Norte 0.2 1000.7 1.1 99
2020-03-22 08:00:00 11 4 Norte 7 Norte 3 1000.3 0.7 99
2020-03-22 07:00:00 11.1 0 Calma 8 Norte 4.4 999.9 0.1 100
2020-03-22 06:00:00 11 5 Norte 8 Noroeste 2.6 999.6 -0.7 99
2020-03-22 05:00:00 10.8 2 Noroeste 9 Norte 0.4 999.6 -0.8 99
2020-03-22 04:00:00 10.8 5 Nordeste 21 Noroeste 1 999.8 -1.4 98
2020-03-22 03:00:00 10.9 4 Noroeste 9 Norte 2.6 1000.3 -1.1 98
2020-03-22 02:00:00 10.9 0 Calma 5 Norte 1.4 1000.4 -1.4 97
2020-03-22 01:00:00 10.8 5 Norte 24 Noroeste 3.2 1001.2 -0.7 95
2020-03-22 00:00:00 11.9 5 Sur 10 Sur 0 1001.4 -0.5 92
2020-03-21 23:00:00 12.2 6 Sur 14 Sur 0 1001.8 0.4 90
2020-03-21 22:00:00 12.1 9 Sur 18 Sur 0.4 1001.9 0.4 92
2020-03-21 21:00:00 12.6 11 Sudoeste 27 Sudoeste 0.4 1001.9 0.3 85
2020-03-21 20:00:00 12.9 12 Sudoeste 25 Sudoeste 0 1001.4 -0.3 79
2020-03-21 19:00:00 13.3 13 Sur 30 Sudoeste 0.4 1001.5 -0.3 81
2020-03-21 18:00:00 13.7 10 Sudoeste 26 Sudoeste 1 1001.6 0 80
2020-03-21 17:00:00 13.3 10 Sudoeste 28 Sur 2 1001.7 -0.6 84
2020-03-21 16:00:00 13.7 12 Sudoeste 33 Sudoeste 1.4 1001.8 -1.1 80
2020-03-21 15:00:00 17.2 17 Sudoeste 44 Oeste 0 1001.6 -2.1 53
2020-03-21 14:00:00 17.3 17 Sudoeste 40 Sudoeste 0 1002.3 -1.9 53
2020-03-21 13:00:00 17.6 10 Sudoeste 34 Sur 0 1002.9 -1.3 58
2020-03-21 12:00:00 16.6 12 Sudoeste 36 Sudoeste 0 1003.7 -0.4 60
2020-03-21 11:00:00 16.1 13 Sudoeste 29 Oeste 0 1004.2 0.4 61
2020-03-21 10:00:00 15.2 13 Sudoeste 25 Sudoeste 0 1004.2 0.7 67
2020-03-21 09:00:00 13.6 8 Sur 18 Sudoeste 0 1004.1 0.7 76
2020-03-21 08:00:00 13 9 Sudoeste 21 Sudoeste 0 1003.8 0.9 73
2020-03-21 07:00:00 12.5 9 Oeste 23 Noroeste 0 1003.5 0.6 77
2020-03-21 06:00:00 12.9 8 Oeste 33 Oeste 0 1003.4 0.2 77
2020-03-21 05:00:00 13.1 10 Sudoeste 26 Sur 0 1002.9 -0.7 80
2020-03-21 04:00:00 13.2 9 Oeste 26 Oeste 0 1002.9 -0.4 87
2020-03-21 03:00:00 13.4 8 Sudoeste 17 Sudoeste 0 1003.2 -0.6 85
2020-03-21 02:00:00 13.2 6 Oeste 33 Noroeste 0.4 1003.6 -0.1 88
2020-03-21 01:00:00 12.8 14 Oeste 33 Oeste 0.8 1003.3 -0.5 86
2020-03-21 00:00:00 14.2 9 Oeste 34 Sudeste 12.2 1003.8 0.6 96
2020-03-20 23:00:00 15 16 Sudeste 31 Sudeste 3.6 1003.7 0.3 97
2020-03-20 22:00:00 15.1 14 Sudeste 31 Sudeste 0 1003.8 0.3 95
2020-03-20 21:00:00 15 18 Sudeste 30 Sudeste 0 1003.2 0.2 94
2020-03-20 20:00:00 15 18 Sudeste 29 Sudeste 0 1003.4 0.2 92
2020-03-20 19:00:00 15 17 Sudeste 29 Sudeste 0 1003.5 0 90
2020-03-20 18:00:00 15.1 16 Sudeste 28 Este 0 1003 -0.8 87
2020-03-20 17:00:00 15.4 15 Sudeste 32 Sudeste 0 1003.2 -1.5 84
2020-03-20 16:00:00 15.7 18 Sudeste 33 Sudeste 0 1003.5 -1.6 85
2020-03-20 15:00:00 15.3 17 Sudeste 30 Este 0 1003.8 -1.5 87
2020-03-20 14:00:00 14.9 14 Este 33 Sudeste 0 1004.7 -0.5 89
2020-03-20 13:00:00 14.9 19 Sudeste 39 Sudeste 0 1005.1 0.3 88
2020-03-20 12:00:00 15.2 17 Sudeste 30 Sudeste 0 1005.3 0.7 88
2020-03-20 11:00:00 15 15 Este 34 Este 0 1005.2 1.2 90
2020-03-20 10:00:00 15.1 19 Sudeste 36 Sudeste 0 1004.8 1.1 86
2020-03-20 09:00:00 15 20 Sudeste 39 Este 0 1004.6 0.9 86
2020-03-20 08:00:00 14.9 18 Sudeste 33 Sudeste 0 1004 0.2 87
2020-03-20 07:00:00 14.7 16 Sudeste 33 Sudeste 0 1003.7 -0.1 88
2020-03-20 06:00:00 14.8 20 Sudeste 36 Sudeste 0 1003.7 -0.7 89
2020-03-20 05:00:00 14.7 19 Sudeste 38 Sudeste 0 1003.8 -1.1 88
2020-03-20 04:00:00 14.9 20 Sudeste 39 Sudeste 0 1003.8 -1.7 88
2020-03-20 03:00:00 15 22 Sudeste 41 Este 0 1004.4 -1.5 87
2020-03-20 02:00:00 15.1 23 Sudeste 40 Este 0 1004.9 -0.8 87
2020-03-20 01:00:00 15.2 20 Este 37 Este 0 1005.5 -0.1 88
2020-03-20 00:00:00 15.4 19 Sudeste 36 Este 0 1005.9 0 88
2020-03-19 23:00:00 15.4 22 Sudeste 36 Este 0 1005.7 0.6 88
2020-03-19 22:00:00 15.3 18 Este 44 Este 0 1005.6 0.7 89
2020-03-19 21:00:00 15.3 22 Este 43 Este 0 1005.9 1 87
2020-03-19 20:00:00 15.2 22 Este 42 Este 0 1005.1 -0.2 87
2020-03-19 19:00:00 15.4 21 Sudeste 39 Este 0 1004.9 -0.9 86
2020-03-19 18:00:00 15.4 21 Este 45 Este 0 1004.9 -1.5 87
2020-03-19 17:00:00 15.6 23 Este 46 Este 0 1005.3 -1.6 85
2020-03-19 16:00:00 15.2 21 Sudeste 41 Este 0 1005.8 -1.8 87
2020-03-19 15:00:00 15.5 27 Sudeste 48 Este 0 1006.4 -1.5 86
2020-03-19 14:00:00 15.6 24 Este 43 Sudeste 0 1006.9 -1.3 87
2020-03-19 13:00:00 15.2 24 Este 46 Este 0 1007.6 -0.5 88
2020-03-19 12:00:00 15.1 25 Este 50 Este 0 1007.9 0.5 88
2020-03-19 11:00:00 15.3 23 Sudeste 45 Este 0 1008.2 1 87
2020-03-19 10:00:00 15.3 23 Sudeste 43 Sudeste 0 1008.1 0.8 87
2020-03-19 09:00:00 15.3 24 Este 42 Este 0 1007.4 -0.1 86
2020-03-19 08:00:00 15.1 24 Sudeste 48 Este 0 1007.2 -0.5 88
2020-03-19 07:00:00 15.1 23 Este 44 Este 0 1007.3 -0.9 88
2020-03-19 06:00:00 15.1 27 Este 44 Este 0 1007.5 -1.5 88
2020-03-19 05:00:00 15.1 19 Este 41 Este 0 1007.7 -1.9 89
2020-03-19 04:00:00 15.3 23 Este 42 Este 0 1008.2 -1.3 90
2020-03-19 03:00:00 15.4 18 Sudeste 35 Este 0 1009 -0.4 91
2020-03-19 02:00:00 15.4 21 Sudeste 41 Sudeste 0 1009.6 0.4 90
2020-03-19 01:00:00 15.5 24 Sudeste 45 Sudeste 0 1009.5 0.3 86
2020-03-19 00:00:00 15.6 19 Sudeste 47 Este 0 1009.4 0.6 87
2020-03-18 23:00:00 15.6 23 Este 46 Este 0 1009.2 0.7 85
2020-03-18 22:00:00 15.6 23 Sudeste 51 Sudeste 0 1009.2 0.9 86
2020-03-18 21:00:00 15.6 28 Este 51 Sudeste 0 1008.8 0.8 84
2020-03-18 20:00:00 15.6 28 Sudeste 51 Este 0 1008.5 0.5 85
2020-03-18 19:00:00 15.6 25 Este 44 Sudeste 0 1008.3 0.5 86
2020-03-18 18:00:00 15.7 24 Este 51 Este 0 1008 -0.5 87
2020-03-18 17:00:00 15.7 32 Este 50 Este 0 1008 -1.1 88
2020-03-18 16:00:00 16.6 28 Este 55 Este 0 1007.8 -1.9 84
2020-03-18 15:00:00 16.2 30 Este 54 Este 0 1008.5 -1.3 84
2020-03-18 14:00:00 16 30 Este 59 Este 0 1009.1 -0.7 87
2020-03-18 13:00:00 15.8 32 Este 54 Este 0 1009.7 0.2 87
2020-03-18 12:00:00 15.7 27 Este 54 Este 0 1009.8 0.8 88
2020-03-18 11:00:00 15.6 27 Este 51 Este 0 1009.8 1.1 89
2020-03-18 10:00:00 15.2 23 Este 52 Este 0 1009.5 1.3 92
2020-03-18 09:00:00 15 21 Este 48 Este 0 1009 1.4 94
2020-03-18 08:00:00 15.1 22 Este 48 Este 0.2 1008.7 1.7 94
2020-03-18 07:00:00 15.1 23 Este 43 Este 0 1008.2 1.1 95
2020-03-18 06:00:00 15.2 25 Este 49 Este 0 1007.6 0.3 94
2020-03-18 05:00:00 15.1 25 Este 45 Este 0.6 1007 -0.3 95
2020-03-18 04:00:00 15.1 22 Este 46 Este 0.8 1007.1 0.1 97
2020-03-18 03:00:00 15.5 23 Este 44 Este 0.2 1007.3 -0.8 95
2020-03-18 02:00:00 15.5 25 Este 50 Este 0 1007.3 -0.6 95
2020-03-18 01:00:00 15.5 28 Este 53 Sudeste 0.8 1007 -0.8 94
2020-03-18 00:00:00 15.5 24 Sudeste 49 Este 2 1008.1 0.3 93
2020-03-17 23:00:00 15.1 23 Sudeste 41 Este 0.2 1007.9 0.6 92
2020-03-17 22:00:00 14.7 24 Este 48 Sudeste 0 1007.8 0.5 88
2020-03-17 21:00:00 15.1 30 Este 49 Este 0 1007.8 0.5 79
2020-03-17 20:00:00 14.9 27 Este 51 Este 0 1007.3 0.2 82
2020-03-17 19:00:00 15 22 Este 45 Este 0 1007.3 0 78
2020-03-17 18:00:00 15.3 24 Este 44 Este 0 1007.3 0 73
2020-03-17 17:00:00 15.7 24 Este 49 Este 0 1007.1 -0.6 68
2020-03-17 16:00:00 16.1 24 Este 47 Este 0 1007.3 -1.1 69
2020-03-17 15:00:00 15.8 25 Este 44 Sudeste 0 1007.3 -1.5 69
2020-03-17 14:00:00 15.7 17 Este 37 Este 0 1007.7 -0.9 71
2020-03-17 13:00:00 15.1 20 Este 34 Este 0 1008.4 0.4 68
2020-03-17 12:00:00 14.2 17 Nordeste 33 Este 0 1008.8 1.4 75
2020-03-17 11:00:00 13.7 17 Este 27 Sudeste 0 1008.6 1.7 74
2020-03-17 10:00:00 14.9 15 Sudeste 28 Este 0 1008 1.1 53
2020-03-17 09:00:00 13.1 4 Sur 12 Sudoeste 0 1007.4 1.2 60
2020-03-17 08:00:00 11.3 5 Sudoeste 16 Sur 0 1006.9 1.4 62
2020-03-17 07:00:00 10.5 5 Sudoeste 17 Sudoeste 0.6 1006.9 1.5 82
2020-03-17 06:00:00 10.9 8 Sudoeste 25 Sudoeste 0.6 1006.2 -0.2 80
2020-03-17 05:00:00 11.5 13 Sudoeste 30 Sudoeste 0 1005.5 -1.2 72
2020-03-17 04:00:00 11.2 10 Sudoeste 31 Sur 0 1005.4 -1.3 75
2020-03-17 03:00:00 11 7 Sudoeste 19 Sudoeste 0 1006.4 -0.7 77
2020-03-17 02:00:00 11.1 6 Sudoeste 17 Sudoeste 0 1006.7 -0.6 78
2020-03-17 01:00:00 10.7 7 Sudoeste 19 Sur 0 1006.7 0.1 79
2020-03-17 00:00:00 10.9 8 Sudoeste 44 Noroeste 3.6 1007.1 0.6 79
2020-03-16 23:00:00 12.4 9 Noroeste 26 Sur 1.2 1007.3 1.5 76
2020-03-16 22:00:00 13.7 8 Sudoeste 23 Oeste 0 1006.6 1.1 60
2020-03-16 21:00:00 13.9 10 Oeste 34 Oeste 0 1006.5 1.3 59
2020-03-16 20:00:00 13.9 9 Sudoeste 36 Sudoeste 0 1005.8 0.3 58
2020-03-16 19:00:00 14.3 13 Sudoeste 37 Oeste 0 1005.5 0 51
2020-03-16 18:00:00 15.1 13 Oeste 38 Sudoeste 0 1005.2 -0.2 46
2020-03-16 17:00:00 15 10 Oeste 48 Oeste 0 1005.5 -0.3 49
2020-03-16 16:00:00 14.9 18 Oeste 44 Noroeste 0 1005.5 -0.6 48
2020-03-16 15:00:00 14.6 17 Oeste 50 Oeste 0 1005.4 -1 52
2020-03-16 14:00:00 15 17 Oeste 39 Oeste 0 1005.8 -0.7 51
2020-03-16 13:00:00 14.4 20 Oeste 42 Sudoeste 0 1006.1 0.2 52
2020-03-16 12:00:00 12.8 15 Oeste 32 Oeste 0 1006.4 1.6 50
2020-03-16 11:00:00 12.6 17 Oeste 39 Oeste 0 1006.5 2.6 42
2020-03-16 10:00:00 13 18 Noroeste 38 Noroeste 0 1005.9 2.9 39
2020-03-16 09:00:00 13.1 16 Noroeste 40 Noroeste 0 1004.8 1.6 50
2020-03-16 08:00:00 13.8 19 Oeste 42 Oeste 0 1003.9 1.5 64
2020-03-16 07:00:00 14.5 15 Noroeste 33 Noroeste 0 1003 0.2 68
2020-03-16 06:00:00 15 8 Oeste 29 Oeste 0 1003.2 -0.2 78
2020-03-16 05:00:00 16.3 6 Sudoeste 21 Sur 0 1002.4 -1.4 81
2020-03-16 04:00:00 16.1 7 Sur 20 Sudoeste 0 1002.8 -1.4 78
2020-03-16 03:00:00 16.1 7 Sudoeste 24 Sudoeste 0 1003.4 -1.3 76
2020-03-16 02:00:00 15.7 4 Sudoeste 21 Oeste 0 1003.8 -1.1 78
2020-03-16 01:00:00 15.2 5 Oeste 13 Oeste 0 1004.2 -1 87
2020-03-16 00:00:00 14.8 3 Oeste 6 Sur 0 1004.7 0.6 88
2020-03-15 23:00:00 14.3 5 Oeste 8 Sudoeste 0 1004.9 0.5 90
2020-03-15 22:00:00 15 4 Oeste 14 Sur 0 1005.2 0.9 91
2020-03-15 21:00:00 15.4 11 Sur 21 Sudeste 0 1004.1 -0.5 90
2020-03-15 20:00:00 15.6 10 Sur 19 Sudeste 0 1004.4 -0.4 87
2020-03-15 19:00:00 15.8 10 Sudeste 18 Este 0 1004.3 -0.8 88
2020-03-15 18:00:00 16.1 12 Este 19 Este 0 1004.6 -1 85
2020-03-15 17:00:00 17.3 13 Este 20 Este 0 1004.8 -1.6 80
2020-03-15 16:00:00 16.9 13 Este 21 Este 0 1005.1 -2 81
2020-03-15 15:00:00 16.5 13 Este 21 Este 0 1005.6 -1.7 84
2020-03-15 14:00:00 16 12 Este 21 Este 0 1006.4 -1.1 90
2020-03-15 13:00:00 15.5 12 Este 22 Este 0 1007.1 -0.1 89
2020-03-15 12:00:00 15.6 13 Este 22 Sudeste 0 1007.3 0.2 90
2020-03-15 11:00:00 15.5 14 Este 23 Este 0 1007.5 1 91
2020-03-15 10:00:00 15.4 14 Este 23 Sudeste 1.8 1007.2 0.7 93
2020-03-15 09:00:00 15.3 12 Este 19 Este 1 1007.1 0.3 94
2020-03-15 08:00:00 15.2 10 Sudeste 19 Sudeste 0.6 1006.5 0 94
2020-03-15 07:00:00 15.1 10 Este 19 Este 0.8 1006.5 -0.3 92
2020-03-15 06:00:00 15.5 12 Sudeste 21 Sudeste 0 1006.8 -0.9 87
2020-03-15 05:00:00 15.2 12 Este 22 Sudeste 0 1006.5 -1.3 90
2020-03-15 04:00:00 15.5 11 Sudeste 19 Este 0 1006.8 -1.2 88
2020-03-15 03:00:00 15.6 9 Sudeste 20 Sudeste 0 1007.7 -0.7 84
2020-03-15 02:00:00 15.6 15 Este 23 Este 0 1007.8 -0.5 84
2020-03-15 01:00:00 15.6 12 Este 22 Sudeste 0 1008 -0.2 84
2020-03-15 00:00:00 15.6 10 Sudeste 19 Este 0 1008.4 0.6 81
2020-03-14 23:00:00 15.6 11 Sudeste 20 Este 0 1008.3 0.8 82
2020-03-14 22:00:00 15.4 10 Este 17 Sudeste 0 1008.2 0.7 83
2020-03-14 21:00:00 15.7 11 Sudeste 17 Este 0 1007.8 0.1 83
2020-03-14 20:00:00 16 9 Sudeste 17 Sudeste 0 1007.5 -0.3 83
2020-03-14 19:00:00 16.4 10 Sudeste 18 Sudeste 0 1007.5 -0.5 80
2020-03-14 18:00:00 16.8 11 Sudeste 17 Sudeste 0 1007.7 -0.7 83
2020-03-14 17:00:00 17.3 13 Este 22 Sudeste 0 1007.8 -1.3 82
2020-03-14 16:00:00 17.8 10 Este 19 Este 0 1008 -1.7 74
2020-03-14 15:00:00 17.8 14 Este 21 Nordeste 0 1008.4 -1.5 78
2020-03-14 14:00:00 18.7 11 Sudeste 18 Este 0 1009.1 -0.9 71
2020-03-14 13:00:00 18.2 9 Sudeste 17 Sudeste 0 1009.7 -0.1 70
2020-03-14 12:00:00 17.2 10 Sudeste 16 Sudeste 0 1009.9 0.7 80
2020-03-14 11:00:00 16.9 8 Este 14 Sudeste 0 1010 1.1 81
2020-03-14 10:00:00 16.1 8 Este 14 Este 0 1009.8 1.3 88
2020-03-14 09:00:00 15.7 5 Este 16 Nordeste 0 1009.2 1 91
2020-03-14 08:00:00 15.3 11 Nordeste 19 Nordeste 0 1008.9 0.9 95
2020-03-14 07:00:00 15.2 6 Nordeste 18 Norte 0 1008.5 0.3 96
2020-03-14 06:00:00 15 12 Norte 21 Norte 0 1008.2 -0.3 94
2020-03-14 05:00:00 15 12 Norte 22 Norte 0 1008 -0.5 90
2020-03-14 04:00:00 14.8 9 Norte 18 Norte 0 1008.2 -0.5 89
2020-03-14 03:00:00 14.7 10 Norte 19 Norte 0 1008.5 0 91
2020-03-14 02:00:00 14.4 3 Noroeste 17 Noroeste 0 1008.5 0.1 88
2020-03-14 01:00:00 14.8 8 Noroeste 14 Noroeste 0 1008.7 0.6 86
2020-03-14 00:00:00 15.2 4 Oeste 6 Oeste 0 1008.5 0.7 84
2020-03-13 23:00:00 15.2 4 Oeste 6 Oeste 0 1008.4 1.4 83
2020-03-13 22:00:00 15.4 0 Calma 7 Oeste 0 1008.1 1.8 81
2020-03-13 21:00:00 16.2 2 Sudeste 6 Este 0 1007.8 1.9 78
2020-03-13 20:00:00 17.3 4 Sudoeste 14 Este 0 1007 1.5 73
2020-03-13 19:00:00 18.1 8 Este 19 Noroeste 0 1006.3 0.6 69
2020-03-13 18:00:00 18.4 8 Noroeste 19 Este 0 1005.9 -0.1 68
2020-03-13 17:00:00 20.1 6 Este 33 Oeste 0 1005.5 -1.4 59
2020-03-13 16:00:00 20.8 15 Sudoeste 35 Sudoeste 0 1005.7 -1.5 54
2020-03-13 15:00:00 20.9 15 Oeste 35 Oeste 0 1006 -1.1 58
2020-03-13 14:00:00 21.3 12 Oeste 32 Oeste 0 1006.9 -0.4 56
2020-03-13 13:00:00 21.5 9 Noroeste 26 Norte 0 1007.2 0.2 54
2020-03-13 12:00:00 21.7 8 Este 22 Oeste 0 1007.1 0.7 51
2020-03-13 11:00:00 20.5 6 Este 29 Norte 0 1007.3 1 51
2020-03-13 10:00:00 20.1 9 Este 29 Noroeste 0 1007 1 56
2020-03-13 09:00:00 18.8 11 Noroeste 35 Noroeste 0.2 1006.4 0.4 56
2020-03-13 08:00:00 16.1 6 Nordeste 12 Sur 0 1006.3 0.1 68
2020-03-13 07:00:00 16.4 4 Este 19 Sudoeste 0 1006 -0.2 63
2020-03-13 06:00:00 15.2 5 Norte 12 Noroeste 0 1006 -0.9 71
2020-03-13 05:00:00 15.9 4 Nordeste 11 Oeste 0 1006.2 -0.9 67
2020-03-13 04:00:00 15.9 5 Oeste 11 Oeste 0 1006.2 -1.3 60
2020-03-13 03:00:00 16.4 2 Noroeste 10 Sudoeste 0 1006.9 -0.9 54
2020-03-13 02:00:00 17.3 7 Sur 11 Sur 0 1007.1 -0.5 56
2020-03-13 01:00:00 16.1 3 Oeste 11 Oeste 0 1007.5 0.1 63
2020-03-13 00:00:00 16.3 3 Sudeste 7 Nordeste 0 1007.8 0.6 71
2020-03-12 23:00:00 16.9 3 Sudoeste 11 Sudoeste 0 1007.6 0.7 67
2020-03-12 22:00:00 17.4 3 Nordeste 6 Oeste 0 1007.4 0.6 64
2020-03-12 21:00:00 17.6 3 Noroeste 5 Noroeste 0 1007.2 0.6 65
2020-03-12 20:00:00 19.4 2 Este 11 Sur 0 1006.9 -0.1 56
2020-03-12 19:00:00 21.9 6 Sur 10 Sur 0 1006.8 -0.7 51
2020-03-12 18:00:00 23.9 5 Norte 17 Norte 0 1006.6 -1.6 43
2020-03-12 17:00:00 24 11 Norte 18 Norte 0 1007 -2 36
2020-03-12 16:00:00 23.5 9 Nordeste 17 Norte 0 1007.5 -2.6 38
2020-03-12 15:00:00 22.8 9 Nordeste 18 Nordeste 0 1008.2 -2.1 38
2020-03-12 14:00:00 21.2 9 Nordeste 14 Nordeste 0 1009 -1.4 47
2020-03-12 13:00:00 21.3 6 Nordeste 12 Nordeste 0 1010.1 -0.1 47
2020-03-12 12:00:00 21.6 7 Nordeste 11 Norte 0 1010.3 0.4 43
2020-03-12 11:00:00 20.9 5 Sur 9 Sur 0 1010.4 1.1 46
2020-03-12 10:00:00 19.6 4 Sudeste 8 Sudeste 0 1010.2 1.2 56
2020-03-12 09:00:00 17.8 3 Sudoeste 9 Sudoeste 0 1009.9 1 65
2020-03-12 08:00:00 16.4 4 Sudoeste 11 Sudoeste 0 1009.3 0.4 69
2020-03-12 07:00:00 15.9 6 Oeste 9 Oeste 0 1009 -0.4 72
2020-03-12 06:00:00 16.1 4 Sudoeste 9 Sudoeste 0 1008.9 -0.8 68
2020-03-12 05:00:00 16.1 4 Oeste 6 Sudoeste 0 1008.9 -1.3 67
2020-03-12 04:00:00 16.1 4 Oeste 8 Oeste 0 1009.4 -1 67
2020-03-12 03:00:00 16.2 3 Norte 9 Oeste 0 1009.7 -0.9 66
2020-03-12 02:00:00 15.8 7 Oeste 9 Oeste 0 1010.2 -0.5 73
2020-03-12 01:00:00 15.2 5 Noroeste 12 Noroeste 0 1010.4 0 78
2020-03-12 00:00:00 14.9 7 Noroeste 11 Norte 0 1010.6 0.4 81
2020-03-11 23:00:00 15.8 5 Noroeste 8 Norte 0 1010.7 0.7 76
2020-03-11 22:00:00 18.7 4 Sur 10 Sur 0 1010.4 0.3 53
2020-03-11 21:00:00 18.7 6 Sur 17 Oeste 0 1010.2 0 52
2020-03-11 20:00:00 17.8 9 Sudoeste 14 Sur 0 1010 -0.1 65
2020-03-11 19:00:00 18.6 7 Sudoeste 15 Sur 0 1010.1 -0.7 62
2020-03-11 18:00:00 19.8 10 Sudeste 22 Sudeste 0 1010.2 -1.2 57
2020-03-11 17:00:00 19.5 8 Nordeste 17 Nordeste 0 1010.1 -2.1 64
2020-03-11 16:00:00 19.4 7 Este 13 Este 0 1010.8 -2 66
2020-03-11 15:00:00 19 8 Este 15 Este 0 1011.4 -1.9 64
2020-03-11 14:00:00 19.3 9 Sudeste 21 Este 0 1012.2 -1.4 68
2020-03-11 13:00:00 19.2 12 Sur 22 Este 0 1012.8 -0.7 71
2020-03-11 12:00:00 18.9 14 Este 24 Sudeste 0 1013.3 0.1 71
2020-03-11 11:00:00 18.3 12 Este 23 Este 0 1013.6 0.6 72
2020-03-11 10:00:00 17.7 10 Sudeste 20 Sudeste 0 1013.5 0.9 82
2020-03-11 09:00:00 16.6 10 Sudeste 21 Este 0 1013.2 0.8 87
2020-03-11 08:00:00 15.3 8 Sudeste 22 Este 0 1013 0.6 92
2020-03-11 07:00:00 14.9 12 Este 23 Este 0 1012.6 -0.1 92
2020-03-11 06:00:00 15 13 Este 22 Este 0 1012.4 -1.3 88
2020-03-11 05:00:00 15.2 10 Este 28 Este 0 1012.4 -1.8 83
2020-03-11 04:00:00 15.2 16 Este 29 Este 0 1012.7 -1.7 87
2020-03-11 03:00:00 15.1 10 Este 21 Este 0 1013.7 -1 89
2020-03-11 02:00:00 15.3 10 Este 19 Sudeste 0 1014.2 -1 87
2020-03-11 01:00:00 15.4 12 Este 19 Sudeste 0 1014.4 -0.9 86
2020-03-11 00:00:00 15.5 9 Este 18 Sudeste 0 1014.7 -0.7 83
2020-03-10 23:00:00 15.7 8 Sudeste 19 Este 0 1015.2 -0.2 83
2020-03-10 22:00:00 15.6 8 Sudeste 18 Sudeste 0 1015.3 -0.3 78
2020-03-10 21:00:00 15.5 7 Nordeste 18 Este 0 1015.4 0.1 84
2020-03-10 20:00:00 15.6 8 Nordeste 15 Nordeste 0 1015.4 0.3 85
2020-03-10 19:00:00 16.1 6 Nordeste 17 Este 0 1015.6 0.3 86
2020-03-10 18:00:00 17.7 10 Nordeste 16 Este 0 1015.3 -0.1 77
2020-03-10 17:00:00 18.7 8 Sudeste 21 Este 0 1015.1 -0.5 77
2020-03-10 16:00:00 17.7 13 Este 22 Este 0 1015.3 -0.7 83
2020-03-10 15:00:00 18.4 15 Este 20 Este 0 1015.4 -0.6 81
2020-03-10 14:00:00 17.4 9 Nordeste 18 Nordeste 0 1015.6 -0.1 86
2020-03-10 13:00:00 18.5 11 Nordeste 21 Norte 0 1016 1.2 80
2020-03-10 12:00:00 18.4 9 Nordeste 17 Nordeste 0 1016 2.3 63
2020-03-10 11:00:00 20 10 Norte 17 Nordeste 0 1015.7 2.4 46
2020-03-10 10:00:00 20 8 Norte 14 Norte 0 1014.8 2.1 44
2020-03-10 09:00:00 19.5 3 Norte 8 Oeste 0 1013.7 1.7 45
2020-03-10 08:00:00 16 0 Calma 8 Oeste 0 1013.3 1.6 51
2020-03-10 07:00:00 15.9 4 Sudoeste 11 Oeste 0 1012.7 0.8 50
2020-03-10 06:00:00 16.4 4 Sudoeste 9 Oeste 0 1012 -0.5 48
2020-03-10 05:00:00 17.3 9 Sur 11 Sur 0 1011.7 -1.3 46
2020-03-10 04:00:00 18.3 6 Sur 22 Noroeste 0 1011.9 -1.4 42
2020-03-10 03:00:00 19 13 Noroeste 22 Oeste 0 1012.5 -1.1 37
2020-03-10 02:00:00 19.3 5 Oeste 25 Noroeste 0 1013 0 38
2020-03-10 01:00:00 20.2 11 Noroeste 38 Noroeste 0 1013.3 0.3 33
2020-03-10 00:00:00 20.8 11 Noroeste 50 Noroeste 0 1013.6 0.9 33